sensor_id;sensor_type;location;lat;lon;timestamp;pressure;altitude;pressure_sealevel;temperature;humidity
11085;BME280;5596;46.826;8.650;2023-04-08T00:01:57;96456.69;;;6.16;100.00
11085;BME280;5596;46.826;8.650;2023-04-08T00:04:24;96461.19;;;6.09;100.00
11085;BME280;5596;46.826;8.650;2023-04-08T00:06:51;96458.91;;;6.06;100.00
11085;BME280;5596;46.826;8.650;2023-04-08T00:09:18;96459.09;;;6.04;100.00
11085;BME280;5596;46.826;8.650;2023-04-08T00:11:46;96457.47;;;6.03;100.00
11085;BME280;5596;46.826;8.650;2023-04-08T00:14:12;96462.00;;;6.03;100.00
11085;BME280;5596;46.826;8.650;2023-04-08T00:16:39;96462.19;;;6.01;100.00
11085;BME280;5596;46.826;8.650;2023-04-08T00:19:06;96465.47;;;5.97;100.00
11085;BME280;5596;46.826;8.650;2023-04-08T00:21:32;96461.53;;;5.93;100.00
11085;BME280;5596;46.826;8.650;2023-04-08T00:23:59;96462.75;;;5.90;100.00
11085;BME280;5596;46.826;8.650;2023-04-08T00:26:26;96464.34;;;5.85;100.00
11085;BME280;5596;46.826;8.650;2023-04-08T00:28:54;96463.84;;;5.68;100.00
11085;BME280;5596;46.826;8.650;2023-04-08T00:31:20;96463.75;;;5.55;100.00
11085;BME280;5596;46.826;8.650;2023-04-08T00:33:48;96458.81;;;5.52;100.00
11085;BME280;5596;46.826;8.650;2023-04-08T00:36:15;96460.84;;;5.50;100.00
11085;BME280;5596;46.826;8.650;2023-04-08T00:38:42;96457.91;;;5.45;100.00
11085;BME280;5596;46.826;8.650;2023-04-08T00:41:09;96460.72;;;5.37;100.00
11085;BME280;5596;46.826;8.650;2023-04-08T00:43:35;96462.16;;;5.32;100.00
11085;BME280;5596;46.826;8.650;2023-04-08T00:46:04;96459.81;;;5.23;100.00
11085;BME280;5596;46.826;8.650;2023-04-08T00:48:30;96467.66;;;5.24;100.00
11085;BME280;5596;46.826;8.650;2023-04-08T00:50:57;96459.63;;;5.24;100.00
11085;BME280;5596;46.826;8.650;2023-04-08T00:53:24;96456.31;;;5.22;100.00
11085;BME280;5596;46.826;8.650;2023-04-08T00:55:51;96455.47;;;5.22;100.00
11085;BME280;5596;46.826;8.650;2023-04-08T00:58:18;96453.59;;;5.16;100.00
11085;BME280;5596;46.826;8.650;2023-04-08T01:00:45;96446.56;;;5.15;100.00
11085;BME280;5596;46.826;8.650;2023-04-08T01:03:20;96451.09;;;5.14;100.00
11085;BME280;5596;46.826;8.650;2023-04-08T01:05:55;96453.13;;;5.12;100.00
11085;BME280;5596;46.826;8.650;2023-04-08T01:08:22;96443.44;;;5.11;100.00
11085;BME280;5596;46.826;8.650;2023-04-08T01:10:52;96448.31;;;5.01;100.00
11085;BME280;5596;46.826;8.650;2023-04-08T01:13:22;96446.41;;;4.95;100.00
11085;BME280;5596;46.826;8.650;2023-04-08T01:15:50;96440.63;;;4.91;100.00
11085;BME280;5596;46.826;8.650;2023-04-08T01:18:19;96437.94;;;4.91;100.00
11085;BME280;5596;46.826;8.650;2023-04-08T01:20:47;96437.31;;;4.89;100.00
11085;BME280;5596;46.826;8.650;2023-04-08T01:23:17;96450.88;;;4.88;100.00
11085;BME280;5596;46.826;8.650;2023-04-08T01:25:48;96442.84;;;4.88;100.00
11085;BME280;5596;46.826;8.650;2023-04-08T01:28:16;96439.34;;;4.87;100.00
11085;BME280;5596;46.826;8.650;2023-04-08T01:30:43;96444.88;;;4.86;100.00
11085;BME280;5596;46.826;8.650;2023-04-08T01:33:12;96445.09;;;4.84;100.00
11085;BME280;5596;46.826;8.650;2023-04-08T01:35:39;96449.22;;;4.87;100.00
11085;BME280;5596;46.826;8.650;2023-04-08T01:38:07;96443.75;;;4.74;100.00
11085;BME280;5596;46.826;8.650;2023-04-08T01:40:34;96451.78;;;4.74;100.00
11085;BME280;5596;46.826;8.650;2023-04-08T01:43:05;96446.63;;;4.72;100.00
11085;BME280;5596;46.826;8.650;2023-04-08T01:45:33;96451.78;;;4.74;100.00
11085;BME280;5596;46.826;8.650;2023-04-08T01:48:00;96454.81;;;4.71;100.00
11085;BME280;5596;46.826;8.650;2023-04-08T01:50:28;96449.78;;;4.61;100.00
11085;BME280;5596;46.826;8.650;2023-04-08T01:52:56;96448.72;;;4.55;100.00
11085;BME280;5596;46.826;8.650;2023-04-08T01:55:24;96453.03;;;4.56;100.00
11085;BME280;5596;46.826;8.650;2023-04-08T01:57:52;96453.41;;;4.53;100.00
11085;BME280;5596;46.826;8.650;2023-04-08T02:00:23;96448.47;;;4.50;100.00
11085;BME280;5596;46.826;8.650;2023-04-08T02:02:51;96449.66;;;4.48;100.00
11085;BME280;5596;46.826;8.650;2023-04-08T02:05:18;96456.22;;;4.45;100.00
11085;BME280;5596;46.826;8.650;2023-04-08T02:07:45;96447.53;;;4.43;100.00
11085;BME280;5596;46.826;8.650;2023-04-08T02:10:13;96449.13;;;4.38;100.00
11085;BME280;5596;46.826;8.650;2023-04-08T02:12:40;96436.41;;;4.40;100.00
11085;BME280;5596;46.826;8.650;2023-04-08T02:15:09;96441.75;;;4.40;100.00
11085;BME280;5596;46.826;8.650;2023-04-08T02:17:40;96438.06;;;4.41;100.00
11085;BME280;5596;46.826;8.650;2023-04-08T02:20:09;96438.50;;;4.44;100.00
11085;BME280;5596;46.826;8.650;2023-04-08T02:22:39;96441.00;;;4.46;100.00
11085;BME280;5596;46.826;8.650;2023-04-08T02:25:10;96443.22;;;4.42;100.00
11085;BME280;5596;46.826;8.650;2023-04-08T02:27:38;96443.59;;;4.39;100.00
11085;BME280;5596;46.826;8.650;2023-04-08T02:30:06;96452.19;;;4.35;100.00
11085;BME280;5596;46.826;8.650;2023-04-08T02:32:33;96458.94;;;4.31;100.00
11085;BME280;5596;46.826;8.650;2023-04-08T02:35:02;96465.34;;;4.15;100.00
11085;BME280;5596;46.826;8.650;2023-04-08T02:37:29;96467.28;;;4.06;100.00
11085;BME280;5596;46.826;8.650;2023-04-08T02:39:56;96469.66;;;4.01;100.00
11085;BME280;5596;46.826;8.650;2023-04-08T02:42:23;96472.09;;;3.96;100.00
11085;BME280;5596;46.826;8.650;2023-04-08T02:44:51;96476.59;;;3.96;100.00
11085;BME280;5596;46.826;8.650;2023-04-08T02:47:18;96477.78;;;3.93;100.00
11085;BME280;5596;46.826;8.650;2023-04-08T02:49:45;96476.78;;;3.94;100.00
11085;BME280;5596;46.826;8.650;2023-04-08T02:52:13;96473.28;;;3.94;100.00
11085;BME280;5596;46.826;8.650;2023-04-08T02:54:39;96469.97;;;3.92;100.00
11085;BME280;5596;46.826;8.650;2023-04-08T02:57:07;96469.03;;;3.85;100.00
11085;BME280;5596;46.826;8.650;2023-04-08T02:59:34;96468.78;;;3.79;100.00
11085;BME280;5596;46.826;8.650;2023-04-08T03:02:02;96477.91;;;3.70;100.00
11085;BME280;5596;46.826;8.650;2023-04-08T03:04:28;96470.44;;;3.66;100.00
11085;BME280;5596;46.826;8.650;2023-04-08T03:06:55;96479.00;;;3.61;100.00
11085;BME280;5596;46.826;8.650;2023-04-08T03:09:23;96478.91;;;3.55;100.00
11085;BME280;5596;46.826;8.650;2023-04-08T03:11:50;96477.78;;;3.49;100.00
11085;BME280;5596;46.826;8.650;2023-04-08T03:14:19;96477.00;;;3.49;100.00
11085;BME280;5596;46.826;8.650;2023-04-08T03:16:46;96478.44;;;3.51;100.00
11085;BME280;5596;46.826;8.650;2023-04-08T03:19:12;96479.75;;;3.55;100.00
11085;BME280;5596;46.826;8.650;2023-04-08T03:21:39;96483.25;;;3.56;100.00
11085;BME280;5596;46.826;8.650;2023-04-08T03:24:06;96489.13;;;3.51;100.00
11085;BME280;5596;46.826;8.650;2023-04-08T03:26:34;96486.94;;;3.55;100.00
11085;BME280;5596;46.826;8.650;2023-04-08T03:29:01;96481.41;;;3.56;100.00
11085;BME280;5596;46.826;8.650;2023-04-08T03:31:27;96483.78;;;3.51;100.00
11085;BME280;5596;46.826;8.650;2023-04-08T03:33:54;96483.59;;;3.53;100.00
11085;BME280;5596;46.826;8.650;2023-04-08T03:36:21;96483.78;;;3.51;100.00
11085;BME280;5596;46.826;8.650;2023-04-08T03:38:47;96498.44;;;3.55;100.00
11085;BME280;5596;46.826;8.650;2023-04-08T03:41:14;96492.72;;;3.58;100.00
11085;BME280;5596;46.826;8.650;2023-04-08T03:43:42;96496.22;;;3.59;100.00
11085;BME280;5596;46.826;8.650;2023-04-08T03:46:09;96494.19;;;3.61;100.00
11085;BME280;5596;46.826;8.650;2023-04-08T03:48:35;96495.84;;;3.62;100.00
11085;BME280;5596;46.826;8.650;2023-04-08T03:51:02;96491.69;;;3.59;100.00
11085;BME280;5596;46.826;8.650;2023-04-08T03:53:29;96497.03;;;3.59;100.00
11085;BME280;5596;46.826;8.650;2023-04-08T03:55:55;96491.53;;;3.61;100.00
11085;BME280;5596;46.826;8.650;2023-04-08T03:58:22;96500.72;;;3.58;100.00
11085;BME280;5596;46.826;8.650;2023-04-08T04:00:50;96495.75;;;3.55;100.00
11085;BME280;5596;46.826;8.650;2023-04-08T04:03:17;96497.78;;;3.53;100.00
11085;BME280;5596;46.826;8.650;2023-04-08T04:05:44;96501.00;;;3.49;100.00
11085;BME280;5596;46.826;8.650;2023-04-08T04:08:10;96494.84;;;3.48;100.00
11085;BME280;5596;46.826;8.650;2023-04-08T04:10:37;96493.63;;;3.51;100.00
11085;BME280;5596;46.826;8.650;2023-04-08T04:13:03;96499.16;;;3.49;100.00
11085;BME280;5596;46.826;8.650;2023-04-08T04:15:31;96493.19;;;3.47;100.00
11085;BME280;5596;46.826;8.650;2023-04-08T04:17:59;96494.53;;;3.43;100.00
11085;BME280;5596;46.826;8.650;2023-04-08T04:20:25;96496.22;;;3.44;100.00
11085;BME280;5596;46.826;8.650;2023-04-08T04:22:54;96494.38;;;3.45;100.00
11085;BME280;5596;46.826;8.650;2023-04-08T04:25:21;96496.22;;;3.44;100.00
11085;BME280;5596;46.826;8.650;2023-04-08T04:27:47;96499.72;;;3.45;100.00
11085;BME280;5596;46.826;8.650;2023-04-08T04:30:14;96494.00;;;3.48;100.00
11085;BME280;5596;46.826;8.650;2023-04-08T04:32:41;96501.19;;;3.47;100.00
11085;BME280;5596;46.826;8.650;2023-04-08T04:35:09;96496.13;;;3.37;100.00
11085;BME280;5596;46.826;8.650;2023-04-08T04:37:36;96502.97;;;3.32;100.00
11085;BME280;5596;46.826;8.650;2023-04-08T04:40:03;96501.03;;;3.26;100.00
11085;BME280;5596;46.826;8.650;2023-04-08T04:42:30;96501.78;;;3.20;100.00
11085;BME280;5596;46.826;8.650;2023-04-08T04:44:57;96497.28;;;3.20;100.00
11085;BME280;5596;46.826;8.650;2023-04-08T04:47:24;96502.13;;;3.17;100.00
11085;BME280;5596;46.826;8.650;2023-04-08T04:49:50;96507.72;;;3.07;100.00
11085;BME280;5596;46.826;8.650;2023-04-08T04:52:18;96507.91;;;3.06;100.00
11085;BME280;5596;46.826;8.650;2023-04-08T04:54:45;96507.19;;;3.12;100.00
11085;BME280;5596;46.826;8.650;2023-04-08T04:57:12;96508.28;;;3.17;100.00
11085;BME280;5596;46.826;8.650;2023-04-08T04:59:38;96510.63;;;3.20;100.00
11085;BME280;5596;46.826;8.650;2023-04-08T05:02:05;96509.78;;;3.20;100.00
11085;BME280;5596;46.826;8.650;2023-04-08T05:04:32;96509.13;;;3.18;100.00
11085;BME280;5596;46.826;8.650;2023-04-08T05:06:59;96514.94;;;3.21;100.00
11085;BME280;5596;46.826;8.650;2023-04-08T05:09:27;96517.06;;;3.26;100.00
11085;BME280;5596;46.826;8.650;2023-04-08T05:11:54;96517.44;;;3.23;100.00
11085;BME280;5596;46.826;8.650;2023-04-08T05:14:21;96523.13;;;3.20;100.00
11085;BME280;5596;46.826;8.650;2023-04-08T05:16:48;96525.78;;;3.20;100.00
11085;BME280;5596;46.826;8.650;2023-04-08T05:19:14;96519.16;;;3.16;100.00
11085;BME280;5596;46.826;8.650;2023-04-08T05:21:41;96527.34;;;3.14;100.00
11085;BME280;5596;46.826;8.650;2023-04-08T05:24:08;96527.72;;;3.26;100.00
11085;BME280;5596;46.826;8.650;2023-04-08T05:26:37;96539.56;;;3.31;100.00
11085;BME280;5596;46.826;8.650;2023-04-08T05:29:03;96537.16;;;3.36;100.00
11085;BME280;5596;46.826;8.650;2023-04-08T05:31:30;96542.97;;;3.40;100.00
11085;BME280;5596;46.826;8.650;2023-04-08T05:33:57;96544.25;;;3.44;100.00
11085;BME280;5596;46.826;8.650;2023-04-08T05:36:24;96546.19;;;3.50;100.00
11085;BME280;5596;46.826;8.650;2023-04-08T05:38:51;96548.03;;;3.50;100.00
11085;BME280;5596;46.826;8.650;2023-04-08T05:41:18;96548.75;;;3.43;100.00
11085;BME280;5596;46.826;8.650;2023-04-08T05:43:47;96548.41;;;3.47;100.00
11085;BME280;5596;46.826;8.650;2023-04-08T05:46:13;96549.50;;;3.52;100.00
11085;BME280;5596;46.826;8.650;2023-04-08T05:48:40;96544.47;;;3.57;100.00
11085;BME280;5596;46.826;8.650;2023-04-08T05:51:11;96556.25;;;3.63;100.00
11085;BME280;5596;46.826;8.650;2023-04-08T05:53:38;96558.03;;;3.70;100.00
11085;BME280;5596;46.826;8.650;2023-04-08T05:56:05;96567.97;;;3.76;100.00
11085;BME280;5596;46.826;8.650;2023-04-08T05:58:32;96565.47;;;3.75;100.00
11085;BME280;5596;46.826;8.650;2023-04-08T06:01:00;96566.84;;;3.71;100.00
11085;BME280;5596;46.826;8.650;2023-04-08T06:03:26;96568.97;;;3.75;100.00
11085;BME280;5596;46.826;8.650;2023-04-08T06:05:53;96577.47;;;3.79;100.00
11085;BME280;5596;46.826;8.650;2023-04-08T06:08:20;96577.56;;;3.86;100.00
11085;BME280;5596;46.826;8.650;2023-04-08T06:10:48;96578.47;;;3.93;100.00
11085;BME280;5596;46.826;8.650;2023-04-08T06:13:15;96578.78;;;3.98;100.00
11085;BME280;5596;46.826;8.650;2023-04-08T06:15:42;96577.47;;;3.94;100.00
11085;BME280;5596;46.826;8.650;2023-04-08T06:18:10;96578.94;;;3.96;100.00
11085;BME280;5596;46.826;8.650;2023-04-08T06:20:37;96579.41;;;4.00;100.00
11085;BME280;5596;46.826;8.650;2023-04-08T06:23:03;96580.34;;;4.07;100.00
11085;BME280;5596;46.826;8.650;2023-04-08T06:25:31;96582.53;;;4.18;100.00
11085;BME280;5596;46.826;8.650;2023-04-08T06:27:57;96586.59;;;4.29;100.00
11085;BME280;5596;46.826;8.650;2023-04-08T06:30:24;96583.09;;;4.28;100.00
11085;BME280;5596;46.826;8.650;2023-04-08T06:32:51;96573.31;;;4.21;100.00
11085;BME280;5596;46.826;8.650;2023-04-08T06:35:19;96575.09;;;4.13;100.00
11085;BME280;5596;46.826;8.650;2023-04-08T06:37:45;96572.22;;;4.15;100.00
11085;BME280;5596;46.826;8.650;2023-04-08T06:40:12;96572.06;;;4.16;100.00
11085;BME280;5596;46.826;8.650;2023-04-08T06:42:39;96573.16;;;4.22;100.00
11085;BME280;5596;46.826;8.650;2023-04-08T06:45:30;96580.13;;;4.38;100.00
11085;BME280;5596;46.826;8.650;2023-04-08T06:47:57;96586.88;;;4.48;100.00
11085;BME280;5596;46.826;8.650;2023-04-08T06:50:25;96577.78;;;4.64;100.00
11085;BME280;5596;46.826;8.650;2023-04-08T06:52:52;96580.81;;;4.76;100.00
11085;BME280;5596;46.826;8.650;2023-04-08T06:55:19;96584.41;;;4.83;100.00
11085;BME280;5596;46.826;8.650;2023-04-08T06:57:46;96585.28;;;4.90;100.00
11085;BME280;5596;46.826;8.650;2023-04-08T07:00:13;96583.28;;;4.92;100.00
11085;BME280;5596;46.826;8.650;2023-04-08T07:02:40;96584.28;;;4.91;100.00
11085;BME280;5596;46.826;8.650;2023-04-08T07:05:07;96588.16;;;4.88;100.00
11085;BME280;5596;46.826;8.650;2023-04-08T07:07:35;96590.00;;;4.88;100.00
11085;BME280;5596;46.826;8.650;2023-04-08T07:10:03;96589.81;;;4.89;100.00
11085;BME280;5596;46.826;8.650;2023-04-08T07:12:30;96588.41;;;4.93;100.00
11085;BME280;5596;46.826;8.650;2023-04-08T07:14:56;96585.69;;;5.08;100.00
11085;BME280;5596;46.826;8.650;2023-04-08T07:17:23;96575.88;;;5.15;100.00
11085;BME280;5596;46.826;8.650;2023-04-08T07:19:50;96584.63;;;5.24;100.00
11085;BME280;5596;46.826;8.650;2023-04-08T07:22:17;96580.16;;;5.31;100.00
11085;BME280;5596;46.826;8.650;2023-04-08T07:24:45;96584.34;;;5.40;100.00
11085;BME280;5596;46.826;8.650;2023-04-08T07:27:14;96585.50;;;5.52;100.00
11085;BME280;5596;46.826;8.650;2023-04-08T07:29:41;96585.78;;;5.64;100.00
11085;BME280;5596;46.826;8.650;2023-04-08T07:32:07;96587.13;;;5.75;100.00
11085;BME280;5596;46.826;8.650;2023-04-08T07:34:34;96596.03;;;5.82;100.00
11085;BME280;5596;46.826;8.650;2023-04-08T07:37:01;96589.00;;;5.81;100.00
11085;BME280;5596;46.826;8.650;2023-04-08T07:39:27;96589.50;;;5.63;100.00
11085;BME280;5596;46.826;8.650;2023-04-08T07:41:56;96598.22;;;5.71;100.00
11085;BME280;5596;46.826;8.650;2023-04-08T07:44:23;96592.66;;;5.73;100.00
11085;BME280;5596;46.826;8.650;2023-04-08T07:46:50;96599.94;;;5.79;100.00
11085;BME280;5596;46.826;8.650;2023-04-08T07:49:16;96603.78;;;5.91;100.00
11085;BME280;5596;46.826;8.650;2023-04-08T07:51:43;96597.66;;;6.04;100.00
11085;BME280;5596;46.826;8.650;2023-04-08T07:54:10;96597.31;;;6.14;100.00
11085;BME280;5596;46.826;8.650;2023-04-08T07:56:41;96604.81;;;6.25;100.00
11085;BME280;5596;46.826;8.650;2023-04-08T07:59:10;96593.31;;;6.31;100.00
11085;BME280;5596;46.826;8.650;2023-04-08T08:01:37;96605.53;;;6.40;100.00
11085;BME280;5596;46.826;8.650;2023-04-08T08:04:03;96593.03;;;6.54;100.00
11085;BME280;5596;46.826;8.650;2023-04-08T08:06:30;96595.56;;;6.68;100.00
11085;BME280;5596;46.826;8.650;2023-04-08T08:08:57;96597.28;;;6.82;100.00
11085;BME280;5596;46.826;8.650;2023-04-08T08:11:24;96593.81;;;6.95;100.00
11085;BME280;5596;46.826;8.650;2023-04-08T08:13:52;96596.53;;;7.08;100.00
11085;BME280;5596;46.826;8.650;2023-04-08T08:16:20;96591.22;;;7.21;100.00
11085;BME280;5596;46.826;8.650;2023-04-08T08:18:47;96590.00;;;7.31;100.00
11085;BME280;5596;46.826;8.650;2023-04-08T08:21:13;96601.13;;;7.34;100.00
11085;BME280;5596;46.826;8.650;2023-04-08T08:23:41;96592.50;;;7.45;100.00
11085;BME280;5596;46.826;8.650;2023-04-08T08:26:08;96594.53;;;7.50;100.00
11085;BME280;5596;46.826;8.650;2023-04-08T08:28:35;96592.72;;;7.57;100.00
11085;BME280;5596;46.826;8.650;2023-04-08T08:31:02;96599.94;;;7.70;100.00
11085;BME280;5596;46.826;8.650;2023-04-08T08:33:31;96601.59;;;7.77;100.00
11085;BME280;5596;46.826;8.650;2023-04-08T08:35:58;96592.50;;;7.85;100.00
11085;BME280;5596;46.826;8.650;2023-04-08T08:38:25;96593.53;;;7.84;100.00
11085;BME280;5596;46.826;8.650;2023-04-08T08:40:56;96596.00;;;7.85;100.00
11085;BME280;5596;46.826;8.650;2023-04-08T08:43:26;96594.16;;;7.92;100.00
11085;BME280;5596;46.826;8.650;2023-04-08T08:45:53;96599.13;;;7.95;100.00
11085;BME280;5596;46.826;8.650;2023-04-08T08:48:20;96606.56;;;8.00;100.00
11085;BME280;5596;46.826;8.650;2023-04-08T08:50:48;96606.34;;;8.08;100.00
11085;BME280;5596;46.826;8.650;2023-04-08T08:53:15;96611.09;;;8.19;100.00
11085;BME280;5596;46.826;8.650;2023-04-08T08:55:41;96611.50;;;8.29;100.00
11085;BME280;5596;46.826;8.650;2023-04-08T08:58:09;96617.09;;;8.34;100.00
11085;BME280;5596;46.826;8.650;2023-04-08T09:00:36;96603.22;;;8.38;100.00
11085;BME280;5596;46.826;8.650;2023-04-08T09:03:13;96613.59;;;8.41;100.00
11085;BME280;5596;46.826;8.650;2023-04-08T09:05:45;96611.72;;;8.41;100.00
11085;BME280;5596;46.826;8.650;2023-04-08T09:08:23;96605.28;;;8.49;100.00
11085;BME280;5596;46.826;8.650;2023-04-08T09:10:50;96602.59;;;8.49;100.00
11085;BME280;5596;46.826;8.650;2023-04-08T09:13:17;96605.63;;;8.72;100.00
11085;BME280;5596;46.826;8.650;2023-04-08T09:16:00;96600.69;;;9.14;100.00
11085;BME280;5596;46.826;8.650;2023-04-08T09:18:26;96605.50;;;9.43;100.00
11085;BME280;5596;46.826;8.650;2023-04-08T09:20:53;96597.69;;;9.66;100.00
11085;BME280;5596;46.826;8.650;2023-04-08T09:23:20;96598.84;;;9.77;100.00
11085;BME280;5596;46.826;8.650;2023-04-08T09:25:48;96596.03;;;9.90;100.00
11085;BME280;5596;46.826;8.650;2023-04-08T09:28:18;96591.47;;;10.15;100.00
11085;BME280;5596;46.826;8.650;2023-04-08T09:30:45;96586.72;;;10.17;100.00
11085;BME280;5596;46.826;8.650;2023-04-08T09:33:12;96591.09;;;10.12;100.00
11085;BME280;5596;46.826;8.650;2023-04-08T09:35:39;96588.50;;;9.99;100.00
11085;BME280;5596;46.826;8.650;2023-04-08T09:38:06;96587.47;;;10.00;100.00
11085;BME280;5596;46.826;8.650;2023-04-08T09:40:33;96579.91;;;9.83;100.00
11085;BME280;5596;46.826;8.650;2023-04-08T09:43:03;96573.19;;;9.93;100.00
11085;BME280;5596;46.826;8.650;2023-04-08T09:45:30;96571.97;;;10.20;99.82
11085;BME280;5596;46.826;8.650;2023-04-08T09:48:01;96580.41;;;10.23;96.59
11085;BME280;5596;46.826;8.650;2023-04-08T09:50:31;96565.91;;;10.43;97.12
11085;BME280;5596;46.826;8.650;2023-04-08T09:52:59;96574.97;;;10.48;94.00
11085;BME280;5596;46.826;8.650;2023-04-08T09:55:27;96569.50;;;10.55;92.88
11085;BME280;5596;46.826;8.650;2023-04-08T09:57:57;96568.53;;;10.49;88.78
11085;BME280;5596;46.826;8.650;2023-04-08T10:00:29;96571.66;;;10.28;92.31
11085;BME280;5596;46.826;8.650;2023-04-08T10:02:59;96574.50;;;10.08;92.24
11085;BME280;5596;46.826;8.650;2023-04-08T10:05:28;96572.31;;;9.99;92.46
11085;BME280;5596;46.826;8.650;2023-04-08T10:07:56;96566.59;;;9.88;92.05
11085;BME280;5596;46.826;8.650;2023-04-08T10:10:23;96568.69;;;9.86;93.33
11085;BME280;5596;46.826;8.650;2023-04-08T10:12:51;96565.53;;;9.90;94.19
11085;BME280;5596;46.826;8.650;2023-04-08T10:15:21;96564.22;;;9.99;97.55
11085;BME280;5596;46.826;8.650;2023-04-08T10:17:50;96560.91;;;9.97;98.80
11085;BME280;5596;46.826;8.650;2023-04-08T10:23:02;96553.53;;;10.10;97.61
11085;BME280;5596;46.826;8.650;2023-04-08T10:25:30;96546.03;;;10.37;92.64
11085;BME280;5596;46.826;8.650;2023-04-08T10:27:57;96550.66;;;10.85;92.34
11085;BME280;5596;46.826;8.650;2023-04-08T10:30:40;96539.59;;;11.34;87.09
11085;BME280;5596;46.826;8.650;2023-04-08T10:33:11;96541.28;;;11.47;84.33
11085;BME280;5596;46.826;8.650;2023-04-08T10:35:40;96539.75;;;11.40;80.70
11085;BME280;5596;46.826;8.650;2023-04-08T10:38:07;96534.78;;;11.07;81.66
11085;BME280;5596;46.826;8.650;2023-04-08T10:40:36;96533.19;;;11.17;81.46
11085;BME280;5596;46.826;8.650;2023-04-08T10:43:05;96537.41;;;11.13;81.92
11085;BME280;5596;46.826;8.650;2023-04-08T10:45:32;96534.06;;;11.29;82.44
11085;BME280;5596;46.826;8.650;2023-04-08T10:48:11;96533.22;;;11.29;83.07
11085;BME280;5596;46.826;8.650;2023-04-08T10:50:38;96533.06;;;11.12;83.94
11085;BME280;5596;46.826;8.650;2023-04-08T10:53:05;96533.66;;;11.14;84.90
11085;BME280;5596;46.826;8.650;2023-04-08T10:55:32;96535.44;;;11.20;87.74
11085;BME280;5596;46.826;8.650;2023-04-08T10:58:04;96527.38;;;11.02;89.45
11085;BME280;5596;46.826;8.650;2023-04-08T11:00:31;96533.69;;;10.96;92.01
11085;BME280;5596;46.826;8.650;2023-04-08T11:02:59;96528.50;;;10.94;92.36
11085;BME280;5596;46.826;8.650;2023-04-08T11:05:27;96537.75;;;10.87;92.98
11085;BME280;5596;46.826;8.650;2023-04-08T11:07:54;96526.16;;;10.68;93.63
11085;BME280;5596;46.826;8.650;2023-04-08T11:10:20;96523.84;;;10.72;93.68
11085;BME280;5596;46.826;8.650;2023-04-08T11:12:47;96524.41;;;11.22;91.52
11085;BME280;5596;46.826;8.650;2023-04-08T11:15:14;96526.38;;;11.56;86.02
11085;BME280;5596;46.826;8.650;2023-04-08T11:17:41;96530.84;;;11.74;82.80
11085;BME280;5596;46.826;8.650;2023-04-08T11:20:09;96523.25;;;11.83;84.28
11085;BME280;5596;46.826;8.650;2023-04-08T11:22:38;96526.78;;;11.83;84.86
11085;BME280;5596;46.826;8.650;2023-04-08T11:25:05;96524.91;;;11.84;87.03
11085;BME280;5596;46.826;8.650;2023-04-08T11:27:32;96523.38;;;11.76;86.99
11085;BME280;5596;46.826;8.650;2023-04-08T11:30:00;96522.47;;;11.82;89.02
11085;BME280;5596;46.826;8.650;2023-04-08T11:32:27;96525.28;;;11.87;91.29
11085;BME280;5596;46.826;8.650;2023-04-08T11:34:54;96528.66;;;11.83;89.86
11085;BME280;5596;46.826;8.650;2023-04-08T11:37:24;96523.22;;;11.71;90.84
11085;BME280;5596;46.826;8.650;2023-04-08T11:39:54;96525.97;;;11.94;90.95
11085;BME280;5596;46.826;8.650;2023-04-08T11:42:25;96523.25;;;11.83;90.16
11085;BME280;5596;46.826;8.650;2023-04-08T11:44:52;96517.97;;;11.76;91.18
11085;BME280;5596;46.826;8.650;2023-04-08T11:47:19;96523.56;;;11.63;91.69
11085;BME280;5596;46.826;8.650;2023-04-08T11:49:46;96525.88;;;11.48;92.24
11085;BME280;5596;46.826;8.650;2023-04-08T11:52:13;96526.56;;;11.43;93.09
11085;BME280;5596;46.826;8.650;2023-04-08T11:54:40;96521.00;;;11.26;92.87
11085;BME280;5596;46.826;8.650;2023-04-08T11:57:09;96512.09;;;10.96;89.51
11085;BME280;5596;46.826;8.650;2023-04-08T11:59:35;96514.34;;;10.81;90.19
11085;BME280;5596;46.826;8.650;2023-04-08T12:02:02;96511.88;;;10.79;92.03
11085;BME280;5596;46.826;8.650;2023-04-08T12:04:29;96510.44;;;10.95;94.74
11085;BME280;5596;46.826;8.650;2023-04-08T12:06:56;96516.44;;;10.97;93.17
11085;BME280;5596;46.826;8.650;2023-04-08T12:09:23;96507.50;;;10.96;90.83
11085;BME280;5596;46.826;8.650;2023-04-08T12:11:49;96506.44;;;10.97;90.86
11085;BME280;5596;46.826;8.650;2023-04-08T12:14:18;96505.56;;;10.85;93.02
11085;BME280;5596;46.826;8.650;2023-04-08T12:16:46;96514.63;;;10.91;94.38
11085;BME280;5596;46.826;8.650;2023-04-08T12:19:12;96510.44;;;10.95;94.69
11085;BME280;5596;46.826;8.650;2023-04-08T12:21:39;96512.81;;;11.03;93.21
11085;BME280;5596;46.826;8.650;2023-04-08T12:24:06;96508.41;;;10.90;93.79
11085;BME280;5596;46.826;8.650;2023-04-08T12:26:33;96509.00;;;10.92;94.02
11085;BME280;5596;46.826;8.650;2023-04-08T12:29:00;96512.84;;;10.85;92.49
11085;BME280;5596;46.826;8.650;2023-04-08T12:31:28;96518.38;;;10.90;92.09
11085;BME280;5596;46.826;8.650;2023-04-08T12:33:55;96513.81;;;10.90;92.58
11085;BME280;5596;46.826;8.650;2023-04-08T12:36:21;96509.94;;;10.98;92.86
11085;BME280;5596;46.826;8.650;2023-04-08T12:38:48;96515.19;;;11.11;93.28
11085;BME280;5596;46.826;8.650;2023-04-08T12:41:15;96507.91;;;11.12;93.12
11085;BME280;5596;46.826;8.650;2023-04-08T12:43:42;96511.56;;;11.17;95.89
11085;BME280;5596;46.826;8.650;2023-04-08T12:46:08;96513.34;;;11.23;95.76
11085;BME280;5596;46.826;8.650;2023-04-08T12:48:37;96513.34;;;11.23;94.64
11085;BME280;5596;46.826;8.650;2023-04-08T12:51:03;96510.88;;;11.22;92.94
11085;BME280;5596;46.826;8.650;2023-04-08T12:53:30;96509.41;;;11.37;93.43
11085;BME280;5596;46.826;8.650;2023-04-08T12:55:57;96517.63;;;11.43;94.12
11085;BME280;5596;46.826;8.650;2023-04-08T12:58:24;96512.38;;;11.48;93.74
11085;BME280;5596;46.826;8.650;2023-04-08T13:00:50;96513.91;;;11.55;90.54
11085;BME280;5596;46.826;8.650;2023-04-08T13:03:17;96518.16;;;11.63;90.89
11085;BME280;5596;46.826;8.650;2023-04-08T13:05:45;96512.25;;;11.66;89.95
11085;BME280;5596;46.826;8.650;2023-04-08T13:08:12;96516.63;;;11.67;91.79
11085;BME280;5596;46.826;8.650;2023-04-08T13:10:41;96512.84;;;11.68;91.86
11085;BME280;5596;46.826;8.650;2023-04-08T13:13:07;96509.44;;;11.61;90.04
11085;BME280;5596;46.826;8.650;2023-04-08T13:15:34;96509.97;;;11.81;91.07